Time;durP1;ratioP1;P1;durP2;ratioP2;P2;SDS_P1;SDS_P2;PMS_P1;PMS_P2;Temp;Humidity;BMP_temperature;BMP_pressure;BME280_temperature;BME280_humidity;BME280_pressure;Samples;Min_cycle;Max_cycle;Signal;HPM_P1;HPM_P2
2021/04/13 05:11:51;;;;;;;10.07;1.45;;;5.20;99.90;;;;;;3644866;22;722075;-70
2021/04/13 05:14:17;;;;;;;6.72;1.92;;;5.30;99.90;;;;;;3576313;40;20053;-69
2021/04/13 05:16:42;;;;;;;11.38;1.90;;;5.30;99.90;;;;;;3581658;40;20313;-71
2021/04/13 05:19:08;;;;;;;11.07;2.45;;;5.40;99.90;;;;;;3580964;40;20057;-73
2021/04/13 05:21:34;;;;;;;8.40;1.55;;;5.50;99.90;;;;;;3574303;40;20053;-70
2021/04/13 05:24:00;;;;;;;12.65;2.40;;;5.60;99.90;;;;;;3581088;40;20350;-70
2021/04/13 05:26:25;;;;;;;5.93;1.30;;;5.80;99.90;;;;;;3580971;40;20120;-71
2021/04/13 05:28:51;;;;;;;12.02;2.60;;;6.00;99.90;;;;;;3581030;40;20351;-69
2021/04/13 05:31:17;;;;;;;16.08;2.35;;;6.00;99.90;;;;;;3580380;40;20045;-71
2021/04/13 05:33:43;;;;;;;11.55;1.95;;;6.10;99.90;;;;;;3571475;40;20152;-69
2021/04/13 05:36:09;;;;;;;8.82;1.90;;;6.30;99.90;;;;;;3581193;40;20141;-70
2021/04/13 05:38:42;;;;;;;10.93;1.83;;;6.60;99.90;;;;;;3570921;40;20056;-69
2021/04/13 05:41:12;;;;;;;18.00;2.67;;;6.60;99.90;;;;;;3571368;40;20067;-71
2021/04/13 05:43:38;;;;;;;21.45;2.75;;;7.10;99.90;;;;;;3581134;40;20052;-70
2021/04/13 05:46:04;;;;;;;12.02;1.85;;;7.40;99.90;;;;;;3580882;40;20048;-71
2021/04/13 05:48:30;;;;;;;11.95;1.70;;;7.80;99.90;;;;;;3573336;40;20060;-70
2021/04/13 05:50:57;;;;;;;12.38;2.22;;;7.90;99.90;;;;;;3582823;40;20055;-69
2021/04/13 05:53:23;;;;;;;16.65;2.75;;;8.20;99.90;;;;;;3584220;40;22952;-71
2021/04/13 05:55:50;;;;;;;18.92;2.08;;;8.40;99.90;;;;;;3580938;40;20349;-71
2021/04/13 05:58:21;;;;;;;11.65;2.00;;;8.50;99.90;;;;;;3580505;40;20044;-71
2021/04/13 06:00:49;;;;;;;9.85;2.15;;;8.50;99.90;;;;;;3580387;40;20059;-70
2021/04/13 06:03:17;;;;;;;9.80;1.52;;;8.70;99.90;;;;;;3581735;40;20048;-71
2021/04/13 06:05:43;;;;;;;10.07;1.90;;;9.00;99.90;;;;;;3580595;40;20049;-70
2021/04/13 06:08:10;;;;;;;7.22;1.42;;;9.10;99.90;;;;;;3580300;40;20044;-70
2021/04/13 06:10:36;;;;;;;14.52;2.17;;;9.30;99.90;;;;;;3580544;40;20055;-71
2021/04/13 06:13:02;;;;;;;10.80;1.77;;;9.20;99.90;;;;;;3580959;40;20049;-73
2021/04/13 06:15:30;;;;;;;13.15;2.13;;;9.30;99.90;;;;;;3571521;40;20676;-71
2021/04/13 06:17:56;;;;;;;9.52;1.70;;;9.50;99.90;;;;;;3580114;40;20343;-73
2021/04/13 06:20:24;;;;;;;8.80;2.25;;;9.60;99.90;;;;;;3581193;40;20045;-73
2021/04/13 06:22:50;;;;;;;12.65;1.77;;;9.70;99.90;;;;;;3574355;40;20156;-72
2021/04/13 06:25:18;;;;;;;11.50;1.92;;;9.80;99.90;;;;;;3572947;40;20047;-71
2021/04/13 06:27:44;;;;;;;12.48;2.17;;;9.90;99.90;;;;;;3575381;40;20334;-76
2021/04/13 06:30:10;;;;;;;6.72;1.60;;;10.00;99.90;;;;;;3574485;40;20059;-71
2021/04/13 06:32:36;;;;;;;12.52;1.77;;;10.40;99.90;;;;;;3574130;40;20052;-71
2021/04/13 06:35:02;;;;;;;12.07;1.50;;;10.80;99.90;;;;;;3582333;40;20060;-73
2021/04/13 06:37:28;;;;;;;10.48;1.80;;;11.10;99.90;;;;;;3573841;40;20532;-72
2021/04/13 06:39:54;;;;;;;9.38;1.88;;;11.20;99.90;;;;;;3581218;40;20414;-73
2021/04/13 06:42:54;;;;;;;5.53;1.67;;;11.20;99.90;;;;;;3573952;40;20066;-72
2021/04/13 06:46:10;;;;;;;12.15;1.85;;;11.30;99.90;;;;;;3573711;40;20049;-72
2021/04/13 06:48:53;;;;;;;6.55;1.70;;;11.70;99.90;;;;;;3560903;40;20690;-72
2021/04/13 06:51:23;;;;;;;;;;;11.60;99.90;;;;;;3574149;40;20060;-70
2021/04/13 06:54:10;;;;;;;9.10;1.35;;;11.20;99.90;;;;;;3563845;40;20203;-71
2021/04/13 06:57:11;;;;;;;15.85;2.22;;;11.40;99.90;;;;;;3573604;40;20053;-71
2021/04/13 12:38:41;;;;;;;4.20;0.88;;;12.40;88.80;;;;;;3585170;39;20417;-75
2021/04/13 12:41:18;;;;;;;3.42;1.00;;;11.50;89.30;;;;;;3582092;40;20049;-75
2021/04/13 12:43:58;;;;;;;3.30;0.70;;;12.00;83.50;;;;;;3579724;40;20079;-75
2021/04/13 12:46:33;;;;;;;4.55;0.80;;;12.00;81.40;;;;;;3581571;40;20060;-75
2021/04/13 12:49:15;;;;;;;6.70;1.23;;;12.00;86.80;;;;;;3580773;40;20403;-76
2021/04/13 12:51:55;;;;;;;4.32;1.45;;;12.40;78.20;;;;;;3580217;40;20317;-75
2021/04/13 12:54:34;;;;;;;3.33;0.80;;;12.20;77.80;;;;;;3580038;40;20138;-75
2021/04/13 12:57:06;;;;;;;2.30;0.82;;;11.80;80.30;;;;;;3580930;40;20105;-75
2021/04/13 12:59:33;;;;;;;3.80;0.90;;;12.50;81.70;;;;;;3581160;40;20315;-76
2021/04/13 13:01:59;;;;;;;1.77;0.50;;;12.70;82.90;;;;;;3580845;40;20342;-76
2021/04/13 13:04:42;;;;;;;6.40;0.90;;;12.50;82.40;;;;;;3582713;40;20212;-75
2021/04/13 13:07:19;;;;;;;3.60;1.13;;;13.20;80.90;;;;;;3579717;40;20374;-75
2021/04/13 13:09:45;;;;;;;2.88;0.68;;;12.40;77.10;;;;;;3579881;40;20052;-76
2021/04/13 13:12:25;;;;;;;4.95;1.00;;;13.60;74.70;;;;;;3581428;40;20342;-83
2021/04/13 13:15:01;;;;;;;5.38;1.23;;;14.10;70.10;;;;;;3602172;39;20092;-85
2021/04/13 13:17:35;;;;;;;2.95;0.80;;;13.70;70.80;;;;;;3597220;39;20056;-83
2021/04/13 13:20:02;;;;;;;4.43;0.80;;;14.20;68.80;;;;;;3583862;40;20363;-85
2021/04/13 13:22:34;;;;;;;6.38;0.90;;;14.20;70.80;;;;;;3582374;40;20049;-84
2021/04/13 13:25:19;;;;;;;3.45;0.65;;;13.60;69.40;;;;;;3581907;40;20188;-86
2021/04/13 13:27:45;;;;;;;4.38;0.68;;;12.80;70.90;;;;;;3577016;40;20122;-83
2021/04/13 13:30:14;;;;;;;4.72;0.90;;;12.50;75.90;;;;;;3580656;40;20064;-81
2021/04/13 13:32:40;;;;;;;4.22;0.90;;;12.50;69.90;;;;;;3583380;40;20068;-84
2021/04/13 13:35:11;;;;;;;4.65;0.60;;;12.50;70.70;;;;;;3593964;39;20367;-85
2021/04/13 13:37:42;;;;;;;4.07;0.82;;;12.20;73.10;;;;;;3580288;40;20370;-83
2021/04/13 13:40:13;;;;;;;8.40;1.10;;;12.20;73.70;;;;;;3587236;39;20299;-85
2021/04/13 13:42:40;;;;;;;2.72;0.80;;;12.50;76.00;;;;;;3577419;40;20049;-84
2021/04/13 13:45:08;;;;;;;3.97;0.85;;;11.80;73.90;;;;;;3579451;40;20064;-83
2021/04/13 13:47:40;;;;;;;5.40;0.95;;;11.80;80.80;;;;;;3582294;40;20374;-76
2021/04/13 13:50:15;;;;;;;1.98;0.65;;;12.20;77.90;;;;;;3574737;40;20053;-76
2021/04/13 13:52:42;;;;;;;6.45;1.60;;;12.00;78.60;;;;;;3573475;40;20142;-73
2021/04/13 13:55:11;;;;;;;8.52;2.65;;;11.80;77.80;;;;;;3574441;40;20407;-80
2021/04/13 13:57:39;;;;;;;3.08;0.90;;;12.00;78.90;;;;;;3574281;40;20065;-80
2021/04/13 14:00:07;;;;;;;9.20;1.45;;;11.90;74.50;;;;;;3575267;40;20108;-80
2021/04/13 14:02:35;;;;;;;8.82;2.78;;;11.30;76.90;;;;;;3575389;40;20048;-81
2021/04/13 14:05:22;;;;;;;4.55;1.60;;;11.80;79.30;;;;;;3576014;40;20053;-80
2021/04/13 14:07:48;;;;;;;8.52;2.60;;;12.30;80.00;;;;;;3575689;40;20060;-79
2021/04/13 14:10:38;;;;;;;5.18;1.63;;;11.90;77.40;;;;;;3574236;40;20053;-80
2021/04/13 14:13:06;;;;;;;6.85;1.20;;;12.20;78.30;;;;;;3574223;40;20049;-80
2021/04/13 14:15:35;;;;;;;17.05;3.38;;;12.20;80.40;;;;;;3574463;40;20107;-80
2021/04/13 14:18:23;;;;;;;10.57;2.92;;;11.60;78.80;;;;;;3574642;40;20057;-79
2021/04/13 14:21:07;;;;;;;5.82;0.70;;;11.60;79.00;;;;;;3574391;40;20174;-80
2021/04/13 14:23:38;;;;;;;2.75;0.80;;;11.60;77.60;;;;;;3574084;40;20048;-80
2021/04/13 14:26:26;;;;;;;2.58;0.90;;;10.90;78.30;;;;;;3574533;40;20323;-80
2021/04/13 14:29:14;;;;;;;5.82;0.98;;;11.40;79.10;;;;;;3574025;40;20394;-79
2021/04/13 14:31:41;;;;;;;5.93;2.13;;;10.90;80.40;;;;;;3565831;40;20322;-80
2021/04/13 14:34:07;;;;;;;5.85;1.75;;;10.50;81.90;;;;;;3580340;40;20053;-78
2021/04/13 14:36:35;;;;;;;6.15;1.35;;;10.50;87.70;;;;;;3573988;40;20366;-80
2021/04/13 14:39:09;;;;;;;4.35;0.95;;;10.70;89.70;;;;;;3574239;40;20051;-79
2021/04/13 14:41:35;;;;;;;3.90;1.08;;;10.60;89.20;;;;;;3583852;40;20130;-79
2021/04/13 14:44:02;;;;;;;4.78;1.70;;;10.30;88.60;;;;;;3575709;40;20130;-79
2021/04/13 14:46:28;;;;;;;5.63;0.80;;;10.50;91.30;;;;;;3576061;40;20048;-80
2021/04/13 14:48:54;;;;;;;11.15;0.95;;;10.90;85.10;;;;;;3574418;40;20350;-80
2021/04/13 14:51:20;;;;;;;4.60;0.93;;;11.10;85.20;;;;;;3574133;40;20061;-78
2021/04/13 14:53:47;;;;;;;7.22;1.38;;;11.60;84.60;;;;;;3574163;40;20126;-79
2021/04/13 14:56:13;;;;;;;4.07;1.05;;;11.60;82.60;;;;;;3574296;40;20414;-81
2021/04/13 14:58:39;;;;;;;4.53;1.00;;;11.80;78.60;;;;;;3574120;40;20056;-79
2021/04/13 15:01:05;;;;;;;3.58;0.70;;;11.50;76.10;;;;;;3574463;40;20045;-80
2021/04/13 15:03:31;;;;;;;4.68;0.90;;;11.90;76.90;;;;;;3575069;40;20057;-79
2021/04/13 15:05:57;;;;;;;3.90;1.00;;;11.30;78.20;;;;;;3573084;40;20083;-78
2021/04/13 15:08:25;;;;;;;6.68;0.88;;;11.40;79.50;;;;;;3574733;40;20060;-78
2021/04/13 15:10:56;;;;;;;5.82;1.75;;;12.10;79.20;;;;;;3573907;40;20520;-77
2021/04/13 15:13:22;;;;;;;7.18;0.90;;;12.00;79.40;;;;;;3574252;40;20427;-80
2021/04/13 15:15:48;;;;;;;5.57;1.30;;;11.80;77.80;;;;;;3574142;40;20349;-79
2021/04/13 15:18:16;;;;;;;2.78;0.55;;;11.80;75.40;;;;;;3574240;40;20064;-79
2021/04/13 15:20:43;;;;;;;3.45;0.70;;;11.70;76.50;;;;;;3573477;40;20056;-79
2021/04/13 15:23:10;;;;;;;3.97;0.77;;;11.10;79.00;;;;;;3574413;40;20334;-80
2021/04/13 15:25:36;;;;;;;6.22;1.00;;;11.20;81.70;;;;;;3574521;40;20045;-80
2021/04/13 15:28:05;;;;;;;3.55;0.95;;;11.10;85.60;;;;;;3574905;40;20123;-79
2021/04/13 15:30:33;;;;;;;5.22;1.20;;;11.00;83.30;;;;;;3575122;40;20097;-80
2021/04/13 15:32:59;;;;;;;3.90;1.15;;;11.20;81.20;;;;;;3575517;40;20067;-80
2021/04/13 15:35:28;;;;;;;4.40;1.45;;;11.30;79.60;;;;;;3576060;40;20315;-78
2021/04/13 15:38:12;;;;;;;5.95;1.00;;;10.80;79.20;;;;;;3574544;40;20045;-79
2021/04/13 15:40:41;;;;;;;5.78;1.33;;;10.50;78.90;;;;;;3573990;40;20336;-79
2021/04/13 15:43:19;;;;;;;7.78;1.33;;;10.70;81.80;;;;;;3572326;40;20060;-80
2021/04/13 15:46:14;;;;;;;4.35;0.90;;;10.40;83.90;;;;;;3569965;40;20044;-80
2021/04/13 15:48:45;;;;;;;11.02;1.45;;;10.50;85.10;;;;;;3575744;40;20048;-79
2021/04/13 15:51:14;;;;;;;6.88;1.35;;;10.30;85.50;;;;;;3579713;40;20044;-79
2021/04/13 15:53:40;;;;;;;4.70;0.90;;;10.10;85.90;;;;;;3573878;40;20065;-79
2021/04/13 15:56:06;;;;;;;6.20;1.08;;;10.20;87.90;;;;;;3574556;40;20302;-79
2021/04/13 15:58:32;;;;;;;6.95;1.08;;;10.00;87.10;;;;;;3574092;40;20096;-78
2021/04/13 16:01:00;;;;;;;7.05;1.00;;;10.10;88.80;;;;;;3580863;40;20327;-79
2021/04/13 16:03:26;;;;;;;7.15;1.20;;;10.00;89.40;;;;;;3574190;40;20048;-79
2021/04/13 16:05:52;;;;;;;7.47;1.17;;;9.60;91.10;;;;;;3568033;40;20172;-78
2021/04/13 16:08:18;;;;;;;14.90;1.92;;;9.90;91.80;;;;;;3570272;40;20056;-78
2021/04/13 16:10:43;;;;;;;6.00;1.00;;;9.90;92.50;;;;;;3573756;40;20060;-80
2021/04/13 16:13:10;;;;;;;8.05;1.33;;;9.50;93.60;;;;;;3573959;40;20061;-80
2021/04/13 16:15:35;;;;;;;6.63;1.80;;;9.70;94.10;;;;;;3573733;40;20061;-79
2021/04/13 16:18:01;;;;;;;6.72;1.38;;;9.80;94.20;;;;;;3574212;40;20056;-80
2021/04/13 16:20:27;;;;;;;7.00;1.10;;;9.90;94.70;;;;;;3574117;40;20112;-79
2021/04/13 16:22:55;;;;;;;5.72;1.80;;;9.40;96.60;;;;;;3570323;40;20084;-80
2021/04/13 16:25:21;;;;;;;10.40;1.67;;;9.20;97.40;;;;;;3573541;40;20142;-81
2021/04/13 16:27:49;;;;;;;7.32;1.13;;;9.30;97.60;;;;;;3573542;40;20048;-79
2021/04/13 16:30:15;;;;;;;8.82;1.40;;;9.50;97.70;;;;;;3574476;40;20142;-79
2021/04/13 16:32:43;;;;;;;5.55;1.20;;;9.70;97.40;;;;;;3573848;40;20073;-78
2021/04/13 16:35:14;;;;;;;11.30;1.58;;;9.20;99.10;;;;;;3580688;40;20036;-81
2021/04/13 16:37:44;;;;;;;4.88;1.05;;;9.20;98.60;;;;;;3572793;40;20061;-79
2021/04/13 16:40:28;;;;;;;9.75;1.70;;;9.20;99.90;;;;;;3592478;39;20370;-81
2021/04/13 16:43:15;;;;;;;11.32;2.90;;;9.30;99.50;;;;;;3575596;40;20059;-80
2021/04/13 16:46:01;;;;;;;7.10;1.23;;;9.20;99.80;;;;;;3577320;40;20056;-80
2021/04/13 16:48:36;;;;;;;7.53;1.52;;;9.20;99.90;;;;;;3579214;40;20056;-79
2021/04/13 16:51:10;;;;;;;7.97;1.50;;;9.10;99.90;;;;;;3574719;40;20309;-79
2021/04/13 16:53:37;;;;;;;8.85;1.80;;;8.90;99.90;;;;;;3573232;40;20064;-79
2021/04/13 16:56:05;;;;;;;15.68;2.40;;;8.70;99.90;;;;;;3574331;40;20064;-80
2021/04/13 16:58:32;;;;;;;8.10;1.55;;;9.00;99.90;;;;;;3572479;40;20484;-79
2021/04/13 17:00:59;;;;;;;7.43;1.65;;;9.00;99.90;;;;;;3567547;40;20361;-80
2021/04/13 17:03:30;;;;;;;12.32;2.15;;;9.10;99.90;;;;;;3571191;40;20040;-80
2021/04/13 17:06:03;;;;;;;9.18;1.90;;;9.20;99.90;;;;;;3574348;40;20061;-81
2021/04/13 17:08:37;;;;;;;9.45;1.65;;;9.20;99.90;;;;;;3573865;40;20104;-80
2021/04/13 17:11:22;;;;;;;7.70;1.75;;;9.20;99.90;;;;;;3572314;40;20081;-79
2021/04/13 17:14:01;;;;;;;7.75;1.70;;;9.20;99.90;;;;;;3570062;40;20077;-80
2021/04/13 17:16:39;;;;;;;7.75;1.80;;;9.00;99.90;;;;;;3572373;40;20395;-79
2021/04/13 17:19:15;;;;;;;13.98;3.05;;;9.10;99.90;;;;;;3575753;40;20327;-79
2021/04/13 17:21:52;;;;;;;10.43;2.28;;;9.20;99.90;;;;;;3588377;40;20422;-82
2021/04/13 17:24:31;;;;;;;7.80;2.75;;;9.20;99.90;;;;;;3574537;40;20049;-79
2021/04/13 17:27:00;;;;;;;8.55;2.08;;;9.10;99.90;;;;;;3570894;40;20450;-80
2021/04/13 17:29:46;;;;;;;17.63;2.33;;;9.00;99.90;;;;;;3574995;40;20311;-79
2021/04/13 17:32:13;;;;;;;12.27;2.75;;;8.90;99.90;;;;;;3575407;40;20053;-78
2021/04/13 17:34:38;;;;;;;10.20;2.67;;;8.70;99.90;;;;;;3575581;40;20049;-79
2021/04/13 17:37:16;;;;;;;10.02;2.28;;;8.50;99.90;;;;;;3574981;40;20045;-79
2021/04/13 17:39:47;;;;;;;12.00;2.88;;;8.40;99.90;;;;;;3575193;40;20298;-80
2021/04/13 17:42:23;;;;;;;12.10;2.58;;;8.30;99.90;;;;;;3575475;40;20049;-79
2021/04/13 17:44:54;;;;;;;11.65;2.83;;;8.30;99.90;;;;;;3574654;40;20049;-79
2021/04/13 17:47:29;;;;;;;12.90;3.40;;;8.40;99.90;;;;;;3574558;40;20135;-78
2021/04/13 17:49:58;;;;;;;8.77;2.47;;;8.40;99.90;;;;;;3574332;40;20404;-79
2021/04/13 17:52:26;;;;;;;9.02;2.70;;;8.50;99.90;;;;;;3571689;40;20037;-79
2021/04/13 17:55:01;;;;;;;11.18;2.70;;;8.60;99.90;;;;;;3568769;40;21127;-80
2021/04/13 17:57:27;;;;;;;10.07;3.63;;;8.40;99.90;;;;;;3574159;40;20049;-80
2021/04/13 17:59:55;;;;;;;15.80;3.95;;;8.20;99.90;;;;;;3574415;40;20080;-80
2021/04/13 18:02:24;;;;;;;14.38;3.40;;;8.20;99.90;;;;;;3571527;40;20327;-79
2021/04/13 18:05:01;;;;;;;9.25;3.08;;;8.20;99.90;;;;;;3575000;40;20040;-80
2021/04/13 18:07:34;;;;;;;10.27;2.83;;;8.10;99.90;;;;;;3574613;40;20045;-81
2021/04/13 18:10:05;;;;;;;15.50;3.17;;;8.10;99.90;;;;;;3573864;40;20049;-80
2021/04/13 18:12:40;;;;;;;14.52;2.95;;;8.00;99.90;;;;;;3574765;40;20131;-80
2021/04/13 18:15:23;;;;;;;7.53;2.65;;;8.10;99.90;;;;;;3579069;40;20089;-80
2021/04/13 18:18:01;;;;;;;11.23;2.80;;;8.10;99.90;;;;;;3574891;40;20342;-78
2021/04/13 18:20:39;;;;;;;8.20;3.03;;;8.30;99.90;;;;;;3574038;40;20394;-79
2021/04/13 18:23:12;;;;;;;8.35;3.50;;;8.30;99.90;;;;;;3580824;40;20773;-80
2021/04/13 18:25:51;;;;;;;16.00;3.72;;;8.30;99.90;;;;;;3575138;40;20422;-82
2021/04/13 18:28:44;;;;;;;9.90;2.97;;;8.10;99.90;;;;;;3575276;40;20315;-81
2021/04/13 18:31:33;;;;;;;13.25;4.13;;;8.00;99.90;;;;;;3576261;40;20033;-79
2021/04/13 18:34:06;;;;;;;10.50;3.42;;;8.00;99.90;;;;;;3585165;40;20056;-81
2021/04/13 18:36:34;;;;;;;14.45;3.20;;;7.90;99.90;;;;;;3591991;39;20590;-80
2021/04/13 18:39:01;;;;;;;12.00;3.25;;;7.80;99.90;;;;;;3577390;40;20036;-79
2021/04/13 18:41:36;;;;;;;11.63;5.00;;;7.90;99.90;;;;;;3574733;40;20329;-78
2021/04/13 18:44:07;;;;;;;13.50;5.40;;;7.90;99.90;;;;;;3575567;40;20484;-79
2021/04/13 18:46:40;;;;;;;10.38;4.35;;;7.70;99.90;;;;;;3575211;40;20044;-79
2021/04/13 18:49:20;;;;;;;9.10;4.80;;;7.70;99.90;;;;;;3569068;40;20068;-79
2021/04/13 18:51:53;;;;;;;10.20;4.95;;;7.70;99.90;;;;;;3574469;40;20527;-79
2021/04/13 18:54:27;;;;;;;10.52;4.28;;;7.50;99.90;;;;;;3565266;40;20049;-79
2021/04/13 18:57:01;;;;;;;9.43;4.50;;;7.40;99.90;;;;;;3574824;40;20410;-79
2021/04/13 18:59:32;;;;;;;10.68;4.88;;;7.40;99.90;;;;;;3569451;40;20532;-81
2021/04/13 19:02:02;;;;;;;10.02;4.32;;;7.40;99.90;;;;;;3576965;40;20308;-80
2021/04/13 19:04:32;;;;;;;13.80;4.90;;;7.30;99.90;;;;;;3580185;40;20048;-81
2021/04/13 19:07:18;;;;;;;11.75;4.43;;;7.20;99.90;;;;;;3579491;40;20299;-79
2021/04/13 19:09:54;;;;;;;8.10;4.18;;;7.10;99.90;;;;;;3581255;40;20049;-80
2021/04/13 19:12:24;;;;;;;10.98;4.07;;;7.20;99.90;;;;;;3574048;40;20130;-80
2021/04/13 19:15:05;;;;;;;9.57;3.55;;;7.20;99.90;;;;;;3568850;40;20291;-79
2021/04/13 19:17:35;;;;;;;8.55;3.10;;;7.00;99.90;;;;;;3574441;40;20110;-81
2021/04/13 19:20:16;;;;;;;6.85;2.60;;;7.10;99.90;;;;;;3574244;40;20115;-81
2021/04/13 19:22:52;;;;;;;10.50;3.53;;;7.00;99.90;;;;;;3574539;40;20064;-80
2021/04/13 19:25:59;;;;;;;4.93;2.17;;;6.80;99.90;;;;;;3569669;40;20044;-81
2021/04/13 19:28:25;;;;;;;4.93;2.30;;;7.10;99.90;;;;;;3564894;40;20249;-79
2021/04/13 19:31:02;;;;;;;7.65;2.65;;;7.00;99.90;;;;;;3573621;40;20049;-80
2021/04/13 19:33:32;;;;;;;4.15;2.20;;;7.10;99.90;;;;;;3574781;40;20049;-80
2021/04/13 19:36:24;;;;;;;4.97;2.55;;;7.20;99.90;;;;;;3573711;40;20150;-79
2021/04/13 19:39:11;;;;;;;6.03;2.55;;;7.30;99.90;;;;;;3574561;40;20052;-81
2021/04/13 19:41:36;;;;;;;4.15;2.17;;;7.40;99.90;;;;;;3565307;40;20045;-81
2021/04/13 19:44:08;;;;;;;6.10;2.30;;;7.40;99.90;;;;;;3572873;40;20139;-81
2021/04/13 19:46:36;;;;;;;9.20;2.70;;;7.40;99.60;;;;;;3573985;40;20433;-81
2021/04/13 19:49:06;;;;;;;9.63;2.33;;;7.10;99.90;;;;;;3573726;40;20055;-81
2021/04/13 19:51:38;;;;;;;6.65;3.10;;;7.20;99.90;;;;;;3574488;40;20061;-80
2021/04/13 19:54:11;;;;;;;5.05;3.05;;;7.20;99.90;;;;;;3575132;40;20320;-81
2021/04/13 19:56:42;;;;;;;7.22;3.03;;;7.20;99.90;;;;;;3573807;40;20300;-81
2021/04/13 19:59:12;;;;;;;5.43;2.42;;;7.20;99.90;;;;;;3574784;40;20111;-82
2021/04/13 20:01:38;;;;;;;8.10;3.53;;;7.10;99.90;;;;;;3574696;40;20056;-82
2021/04/13 20:04:06;;;;;;;10.15;3.00;;;7.10;99.90;;;;;;3573752;40;20032;-81
2021/04/13 20:06:33;;;;;;;4.65;2.78;;;7.10;99.90;;;;;;3574174;40;20053;-83
2021/04/13 20:09:01;;;;;;;7.35;3.25;;;7.00;99.90;;;;;;3574535;40;20120;-81
2021/04/13 20:11:38;;;;;;;5.10;3.03;;;7.00;99.90;;;;;;3574929;40;20080;-80
2021/04/13 20:14:22;;;;;;;10.57;3.78;;;7.00;99.90;;;;;;3575007;40;20055;-79
2021/04/13 20:17:11;;;;;;;9.55;3.42;;;6.90;99.90;;;;;;3569815;40;20052;-81
2021/04/13 20:19:39;;;;;;;9.48;4.97;;;6.90;99.90;;;;;;3574441;40;20100;-81
2021/04/13 20:22:07;;;;;;;18.63;3.58;;;6.90;99.90;;;;;;3573722;40;20138;-82
2021/04/13 20:24:52;;;;;;;10.93;4.70;;;6.80;99.90;;;;;;3573657;40;20063;-81
2021/04/13 20:27:28;;;;;;;9.48;3.75;;;6.70;99.90;;;;;;3573726;40;20056;-81
2021/04/13 20:30:12;;;;;;;8.73;3.72;;;6.60;99.90;;;;;;3573276;40;20061;-82
2021/04/13 20:32:47;;;;;;;6.63;3.15;;;6.60;99.90;;;;;;3571779;40;20416;-82
2021/04/13 20:38:27;;;;;;;8.50;2.67;;;6.60;99.90;;;;;;3574056;40;20057;-80
2021/04/13 20:41:14;;;;;;;7.72;2.30;;;6.60;99.90;;;;;;3571961;40;20072;-81
2021/04/13 20:43:53;;;;;;;10.40;2.80;;;6.50;99.90;;;;;;3574302;40;20057;-83
2021/04/13 20:47:05;;;;;;;11.70;3.13;;;6.40;99.90;;;;;;3573446;40;20057;-80
2021/04/13 20:49:39;;;;;;;6.20;2.35;;;6.60;99.90;;;;;;3567271;40;20052;-81
2021/04/13 20:52:28;;;;;;;5.18;2.05;;;6.50;99.90;;;;;;3573603;40;20126;-81
2021/04/13 20:55:07;;;;;;;5.82;2.42;;;6.40;99.90;;;;;;3574088;40;20061;-82
2021/04/13 20:57:40;;;;;;;9.98;2.67;;;6.40;99.90;;;;;;3574288;40;20045;-82
2021/04/13 21:00:16;;;;;;;21.45;3.35;;;6.30;99.90;;;;;;3574200;40;20053;-82
2021/04/13 21:02:51;;;;;;;10.93;2.40;;;6.40;99.90;;;;;;3575269;40;20056;-80
2021/04/13 21:05:24;;;;;;;7.82;2.83;;;6.30;99.90;;;;;;3575599;40;20060;-81
2021/04/13 21:07:59;;;;;;;6.45;2.67;;;6.30;99.90;;;;;;3575471;40;20068;-80
2021/04/13 21:10:50;;;;;;;9.45;3.08;;;6.20;99.90;;;;;;3575864;40;20412;-80
2021/04/13 21:13:20;;;;;;;6.80;2.05;;;6.20;99.90;;;;;;3575304;40;20049;-80
2021/04/13 21:15:46;;;;;;;7.43;2.28;;;6.10;99.90;;;;;;3575021;40;20408;-81
2021/04/13 21:18:22;;;;;;;8.93;2.28;;;6.10;99.90;;;;;;3575022;40;20092;-79
2021/04/13 21:21:01;;;;;;;8.88;2.20;;;6.10;99.90;;;;;;3575289;40;20062;-80
2021/04/13 21:23:28;;;;;;;14.00;2.28;;;6.00;99.90;;;;;;3575112;40;20067;-81
2021/04/13 21:26:00;;;;;;;8.95;2.67;;;6.00;99.90;;;;;;3575550;40;20053;-81
2021/04/13 21:28:42;;;;;;;7.60;2.03;;;6.00;99.90;;;;;;3575280;40;20057;-80
2021/04/13 21:31:08;;;;;;;7.53;2.10;;;6.00;99.90;;;;;;3575782;40;20049;-79
2021/04/13 21:33:39;;;;;;;5.55;1.88;;;6.10;99.90;;;;;;3574612;40;20049;-79
2021/04/13 21:36:08;;;;;;;8.52;2.47;;;6.00;99.90;;;;;;3574947;40;20076;-79
2021/04/13 21:38:49;;;;;;;9.10;1.90;;;6.00;99.90;;;;;;3576384;40;20061;-82
2021/04/13 21:41:30;;;;;;;7.43;2.20;;;6.10;99.90;;;;;;3576201;40;20337;-79
2021/04/13 21:44:01;;;;;;;10.52;2.28;;;6.20;99.90;;;;;;3574971;40;20045;-80
2021/04/13 21:46:32;;;;;;;10.02;2.25;;;6.30;99.90;;;;;;3575020;40;20092;-79
2021/04/13 21:49:01;;;;;;;8.68;2.38;;;6.30;99.90;;;;;;3575660;40;20374;-79
2021/04/13 21:51:54;;;;;;;7.43;2.60;;;6.30;99.90;;;;;;3565105;40;20125;-81
2021/04/13 21:54:31;;;;;;;9.53;2.10;;;6.30;99.90;;;;;;3568435;40;20049;-79
2021/04/13 21:57:12;;;;;;;14.82;3.13;;;6.30;99.90;;;;;;3574611;40;20081;-81
2021/04/13 21:59:48;;;;;;;11.10;2.33;;;6.30;99.90;;;;;;3574295;40;20056;-81
2021/04/13 22:02:16;;;;;;;8.80;2.05;;;6.20;99.90;;;;;;3574923;40;20048;-80
2021/04/13 22:04:42;;;;;;;7.55;2.05;;;6.20;99.90;;;;;;3574236;40;20511;-80
2021/04/13 22:07:22;;;;;;;8.57;2.15;;;6.30;99.90;;;;;;3573992;40;20398;-82
2021/04/13 22:09:52;;;;;;;12.82;2.85;;;6.20;99.90;;;;;;3574188;40;20542;-80
2021/04/13 22:12:24;;;;;;;7.63;2.58;;;6.30;99.90;;;;;;3574964;40;20045;-80
2021/04/13 22:15:16;;;;;;;11.65;2.13;;;6.20;99.90;;;;;;3573864;40;20371;-79
2021/04/13 22:18:06;;;;;;;6.03;1.73;;;6.20;99.90;;;;;;3574848;40;20063;-80
2021/04/13 22:20:37;;;;;;;7.90;1.98;;;6.10;99.90;;;;;;3575297;40;20333;-80
2021/04/13 22:23:09;;;;;;;8.73;2.08;;;5.90;99.90;;;;;;3575942;40;20052;-80
2021/04/13 22:25:35;;;;;;;9.90;2.63;;;5.80;99.90;;;;;;3574159;40;20055;-79
2021/04/13 22:28:14;;;;;;;10.57;3.08;;;6.00;99.90;;;;;;3575242;40;20045;-80
2021/04/13 22:31:12;;;;;;;9.15;2.75;;;6.10;99.90;;;;;;3575498;40;20053;-79
2021/04/13 22:33:43;;;;;;;9.95;2.58;;;5.90;99.90;;;;;;3573421;40;20053;-80
2021/04/13 22:36:41;;;;;;;7.78;2.50;;;5.90;99.90;;;;;;3573799;40;20072;-80
2021/04/13 22:39:10;;;;;;;8.15;2.83;;;6.00;99.90;;;;;;3574652;40;20111;-79
2021/04/13 22:41:37;;;;;;;6.90;2.22;;;5.90;99.90;;;;;;3574462;40;20056;-80
2021/04/13 22:44:07;;;;;;;5.97;2.03;;;5.90;99.90;;;;;;3575088;40;20086;-80
2021/04/13 22:46:36;;;;;;;7.03;2.03;;;5.90;99.90;;;;;;3574529;40;20059;-80
2021/04/13 22:49:03;;;;;;;11.40;2.60;;;5.80;99.90;;;;;;3575183;40;20060;-80
2021/04/13 22:51:36;;;;;;;5.38;2.50;;;5.80;99.90;;;;;;3574972;40;20316;-79
2021/04/13 22:54:17;;;;;;;22.98;4.18;;;5.80;99.90;;;;;;3575163;40;20045;-80
2021/04/13 22:56:50;;;;;;;7.43;2.53;;;5.70;99.90;;;;;;3574895;40;20085;-80
2021/04/13 22:59:42;;;;;;;11.43;2.78;;;5.70;99.90;;;;;;3574475;40;20055;-79
2021/04/13 23:02:09;;;;;;;7.97;2.83;;;5.60;99.90;;;;;;3573908;40;20052;-80
2021/04/13 23:04:36;;;;;;;10.73;2.70;;;5.60;99.90;;;;;;3574177;40;20064;-79
2021/04/13 23:07:02;;;;;;;8.82;2.53;;;5.60;99.90;;;;;;3574270;40;20065;-80
2021/04/13 23:09:28;;;;;;;5.03;1.85;;;5.60;99.90;;;;;;3576209;40;20111;-80
2021/04/13 23:11:54;;;;;;;2.55;1.73;;;5.50;99.90;;;;;;3575937;40;20147;-80
2021/04/13 23:14:19;;;;;;;12.93;2.72;;;5.50;99.90;;;;;;3574236;40;20387;-80
2021/04/13 23:16:45;;;;;;;6.63;2.72;;;5.40;99.90;;;;;;3573980;40;20535;-78
2021/04/13 23:19:11;;;;;;;6.13;2.35;;;5.40;99.90;;;;;;3574468;40;20053;-80
2021/04/13 23:21:38;;;;;;;6.18;2.78;;;5.40;99.90;;;;;;3573399;40;20053;-80
2021/04/13 23:24:04;;;;;;;10.63;2.63;;;5.40;99.90;;;;;;3574749;40;20057;-81
2021/04/13 23:26:30;;;;;;;8.57;3.45;;;5.30;99.90;;;;;;3574365;40;20080;-80
2021/04/13 23:28:55;;;;;;;11.63;2.78;;;5.40;99.90;;;;;;3575294;40;20341;-81
2021/04/13 23:31:25;;;;;;;5.07;2.65;;;5.40;99.90;;;;;;3574491;40;20071;-83
2021/04/13 23:33:52;;;;;;;7.32;2.67;;;5.30;99.90;;;;;;3574603;40;20573;-81
2021/04/13 23:36:18;;;;;;;7.93;2.70;;;5.30;99.90;;;;;;3574259;40;20378;-80
2021/04/13 23:38:44;;;;;;;4.15;2.97;;;5.20;99.90;;;;;;3574198;40;20146;-80
2021/04/13 23:41:09;;;;;;;5.25;2.90;;;5.20;99.90;;;;;;3574203;40;20045;-80
2021/04/13 23:43:35;;;;;;;5.55;3.45;;;5.00;99.90;;;;;;3574235;40;20059;-80
2021/04/13 23:46:01;;;;;;;8.38;3.28;;;5.10;99.90;;;;;;3574439;40;20303;-79
2021/04/13 23:48:29;;;;;;;7.97;3.28;;;5.10;99.90;;;;;;3574310;40;20314;-80
2021/04/13 23:50:55;;;;;;;9.55;3.10;;;5.20;99.90;;;;;;3572547;40;20274;-80
2021/04/13 23:53:21;;;;;;;6.90;2.47;;;5.20;99.90;;;;;;3575111;40;20062;-84
2021/04/13 23:55:46;;;;;;;11.30;2.97;;;5.20;99.90;;;;;;3574731;40;20081;-79
2021/04/13 23:58:12;;;;;;;8.20;2.67;;;5.10;99.90;;;;;;3574562;40;20429;-80
